sensor_id;sensor_type;location;lat;lon;timestamp;temperature;humidity
15617;DHT22;7908;51.688;7.130;2022-09-30T00:00:19;4.80;99.90
15617;DHT22;7908;51.688;7.130;2022-09-30T00:02:49;4.70;99.90
15617;DHT22;7908;51.688;7.130;2022-09-30T00:05:21;4.70;99.90
15617;DHT22;7908;51.688;7.130;2022-09-30T00:07:50;4.70;99.90
15617;DHT22;7908;51.688;7.130;2022-09-30T00:10:18;4.70;99.90
15617;DHT22;7908;51.688;7.130;2022-09-30T00:12:47;4.80;99.90
15617;DHT22;7908;51.688;7.130;2022-09-30T00:15:17;4.80;99.90
15617;DHT22;7908;51.688;7.130;2022-09-30T00:17:46;4.80;99.90
15617;DHT22;7908;51.688;7.130;2022-09-30T00:20:15;4.80;99.90
15617;DHT22;7908;51.688;7.130;2022-09-30T00:22:45;4.80;99.90
15617;DHT22;7908;51.688;7.130;2022-09-30T00:25:14;4.70;99.90
15617;DHT22;7908;51.688;7.130;2022-09-30T00:27:43;4.60;99.90
15617;DHT22;7908;51.688;7.130;2022-09-30T00:30:11;4.60;99.90
15617;DHT22;7908;51.688;7.130;2022-09-30T00:32:42;4.50;99.90
15617;DHT22;7908;51.688;7.130;2022-09-30T00:35:10;4.50;99.90
15617;DHT22;7908;51.688;7.130;2022-09-30T00:37:39;4.50;99.90
15617;DHT22;7908;51.688;7.130;2022-09-30T00:40:08;4.50;99.90
15617;DHT22;7908;51.688;7.130;2022-09-30T00:42:39;4.50;99.90
15617;DHT22;7908;51.688;7.130;2022-09-30T00:45:10;4.40;99.90
15617;DHT22;7908;51.688;7.130;2022-09-30T00:47:48;4.40;99.90
15617;DHT22;7908;51.688;7.130;2022-09-30T00:50:31;4.40;99.90
15617;DHT22;7908;51.688;7.130;2022-09-30T00:53:06;4.40;99.90
15617;DHT22;7908;51.688;7.130;2022-09-30T00:55:45;4.40;99.90
15617;DHT22;7908;51.688;7.130;2022-09-30T00:58:19;4.40;99.90
15617;DHT22;7908;51.688;7.130;2022-09-30T01:00:49;4.30;99.90
15617;DHT22;7908;51.688;7.130;2022-09-30T01:03:21;4.30;99.90
15617;DHT22;7908;51.688;7.130;2022-09-30T01:05:50;4.20;99.90
15617;DHT22;7908;51.688;7.130;2022-09-30T01:08:20;4.20;99.90
15617;DHT22;7908;51.688;7.130;2022-09-30T01:10:49;4.20;99.90
15617;DHT22;7908;51.688;7.130;2022-09-30T01:13:19;4.20;99.90
15617;DHT22;7908;51.688;7.130;2022-09-30T01:19:11;4.20;99.90
15617;DHT22;7908;51.688;7.130;2022-09-30T01:21:58;4.10;99.90
15617;DHT22;7908;51.688;7.130;2022-09-30T01:24:42;4.00;99.90
15617;DHT22;7908;51.688;7.130;2022-09-30T01:27:42;4.00;99.90
15617;DHT22;7908;51.688;7.130;2022-09-30T01:30:18;4.00;99.90
15617;DHT22;7908;51.688;7.130;2022-09-30T01:33:14;4.00;99.90
15617;DHT22;7908;51.688;7.130;2022-09-30T01:36:04;4.00;99.90
15617;DHT22;7908;51.688;7.130;2022-09-30T01:38:45;3.90;99.90
15617;DHT22;7908;51.688;7.130;2022-09-30T01:41:23;3.80;99.90
15617;DHT22;7908;51.688;7.130;2022-09-30T01:44:00;3.80;99.90
15617;DHT22;7908;51.688;7.130;2022-09-30T01:46:35;3.90;99.90
15617;DHT22;7908;51.688;7.130;2022-09-30T01:49:12;3.80;99.90
15617;DHT22;7908;51.688;7.130;2022-09-30T01:51:49;3.80;99.90
15617;DHT22;7908;51.688;7.130;2022-09-30T01:54:23;3.70;99.90
15617;DHT22;7908;51.688;7.130;2022-09-30T01:56:56;3.70;99.90
15617;DHT22;7908;51.688;7.130;2022-09-30T01:59:32;3.80;99.90
15617;DHT22;7908;51.688;7.130;2022-09-30T02:02:07;3.80;99.90
15617;DHT22;7908;51.688;7.130;2022-09-30T02:04:42;3.80;99.90
15617;DHT22;7908;51.688;7.130;2022-09-30T02:07:16;3.80;99.90
15617;DHT22;7908;51.688;7.130;2022-09-30T02:09:50;3.80;99.90
15617;DHT22;7908;51.688;7.130;2022-09-30T02:12:25;3.80;99.90
15617;DHT22;7908;51.688;7.130;2022-09-30T02:14:59;3.80;99.90
15617;DHT22;7908;51.688;7.130;2022-09-30T02:17:32;3.70;99.90
15617;DHT22;7908;51.688;7.130;2022-09-30T02:20:06;3.60;99.90
15617;DHT22;7908;51.688;7.130;2022-09-30T02:22:40;3.60;99.90
15617;DHT22;7908;51.688;7.130;2022-09-30T02:25:15;3.50;99.90
15617;DHT22;7908;51.688;7.130;2022-09-30T02:27:49;3.50;99.90
15617;DHT22;7908;51.688;7.130;2022-09-30T02:30:19;3.50;99.90
15617;DHT22;7908;51.688;7.130;2022-09-30T02:32:50;3.50;99.90
15617;DHT22;7908;51.688;7.130;2022-09-30T02:35:25;3.50;99.90
15617;DHT22;7908;51.688;7.130;2022-09-30T02:37:57;3.50;99.90
15617;DHT22;7908;51.688;7.130;2022-09-30T02:40:34;3.50;99.90
15617;DHT22;7908;51.688;7.130;2022-09-30T02:43:06;3.50;99.90
15617;DHT22;7908;51.688;7.130;2022-09-30T02:45:45;3.50;99.90
15617;DHT22;7908;51.688;7.130;2022-09-30T02:48:25;3.50;99.90
15617;DHT22;7908;51.688;7.130;2022-09-30T02:51:03;3.50;99.90
15617;DHT22;7908;51.688;7.130;2022-09-30T02:53:36;3.50;99.90
15617;DHT22;7908;51.688;7.130;2022-09-30T02:56:13;3.40;99.90
15617;DHT22;7908;51.688;7.130;2022-09-30T02:58:45;3.40;99.90
15617;DHT22;7908;51.688;7.130;2022-09-30T03:01:15;3.40;99.90
15617;DHT22;7908;51.688;7.130;2022-09-30T03:03:46;3.40;99.90
15617;DHT22;7908;51.688;7.130;2022-09-30T03:06:17;3.40;99.90
15617;DHT22;7908;51.688;7.130;2022-09-30T03:08:47;3.40;99.90
15617;DHT22;7908;51.688;7.130;2022-09-30T03:11:18;3.30;99.90
15617;DHT22;7908;51.688;7.130;2022-09-30T03:14:07;3.30;99.90
15617;DHT22;7908;51.688;7.130;2022-09-30T03:16:50;3.40;99.90
15617;DHT22;7908;51.688;7.130;2022-09-30T03:19:30;3.40;99.90
15617;DHT22;7908;51.688;7.130;2022-09-30T03:22:18;3.40;99.90
15617;DHT22;7908;51.688;7.130;2022-09-30T03:25:04;3.30;99.90
15617;DHT22;7908;51.688;7.130;2022-09-30T03:27:43;3.30;99.90
15617;DHT22;7908;51.688;7.130;2022-09-30T03:30:19;3.30;99.90
15617;DHT22;7908;51.688;7.130;2022-09-30T03:33:01;3.30;99.90
15617;DHT22;7908;51.688;7.130;2022-09-30T03:35:41;3.30;99.90
15617;DHT22;7908;51.688;7.130;2022-09-30T03:38:22;3.30;99.90
15617;DHT22;7908;51.688;7.130;2022-09-30T03:40:58;3.30;99.90
15617;DHT22;7908;51.688;7.130;2022-09-30T03:43:33;3.30;99.90
15617;DHT22;7908;51.688;7.130;2022-09-30T03:46:12;3.30;99.90
15617;DHT22;7908;51.688;7.130;2022-09-30T03:48:44;3.30;99.90
15617;DHT22;7908;51.688;7.130;2022-09-30T03:51:14;3.30;99.90
15617;DHT22;7908;51.688;7.130;2022-09-30T03:53:45;3.20;99.90
15617;DHT22;7908;51.688;7.130;2022-09-30T03:56:14;3.20;99.90
15617;DHT22;7908;51.688;7.130;2022-09-30T03:58:43;3.20;99.90
15617;DHT22;7908;51.688;7.130;2022-09-30T04:01:17;3.20;99.90
15617;DHT22;7908;51.688;7.130;2022-09-30T04:03:47;3.30;99.90
15617;DHT22;7908;51.688;7.130;2022-09-30T04:06:19;3.20;99.90
15617;DHT22;7908;51.688;7.130;2022-09-30T04:08:50;3.10;99.90
15617;DHT22;7908;51.688;7.130;2022-09-30T04:11:20;3.10;99.90
15617;DHT22;7908;51.688;7.130;2022-09-30T04:13:48;3.10;99.90
15617;DHT22;7908;51.688;7.130;2022-09-30T04:16:17;3.10;99.90
15617;DHT22;7908;51.688;7.130;2022-09-30T04:18:46;3.10;99.90
15617;DHT22;7908;51.688;7.130;2022-09-30T04:21:15;3.10;99.90
15617;DHT22;7908;51.688;7.130;2022-09-30T04:23:43;3.10;99.90
15617;DHT22;7908;51.688;7.130;2022-09-30T04:26:15;3.10;99.90
15617;DHT22;7908;51.688;7.130;2022-09-30T04:28:44;3.00;99.90
15617;DHT22;7908;51.688;7.130;2022-09-30T04:31:14;3.00;99.90
15617;DHT22;7908;51.688;7.130;2022-09-30T04:33:43;3.00;99.90
15617;DHT22;7908;51.688;7.130;2022-09-30T04:36:12;3.00;99.90
15617;DHT22;7908;51.688;7.130;2022-09-30T04:38:40;3.00;99.90
15617;DHT22;7908;51.688;7.130;2022-09-30T04:41:14;3.00;99.90
15617;DHT22;7908;51.688;7.130;2022-09-30T04:43:45;3.10;99.90
15617;DHT22;7908;51.688;7.130;2022-09-30T04:46:14;3.10;99.90
15617;DHT22;7908;51.688;7.130;2022-09-30T04:48:43;3.10;99.90
15617;DHT22;7908;51.688;7.130;2022-09-30T04:51:13;3.10;99.90
15617;DHT22;7908;51.688;7.130;2022-09-30T04:53:43;3.10;99.90
15617;DHT22;7908;51.688;7.130;2022-09-30T04:56:12;3.10;99.90
15617;DHT22;7908;51.688;7.130;2022-09-30T04:58:42;3.10;99.90
15617;DHT22;7908;51.688;7.130;2022-09-30T05:01:13;3.10;99.90
15617;DHT22;7908;51.688;7.130;2022-09-30T05:03:42;3.20;99.90
15617;DHT22;7908;51.688;7.130;2022-09-30T05:06:11;3.20;99.90
15617;DHT22;7908;51.688;7.130;2022-09-30T05:08:40;3.20;99.90
15617;DHT22;7908;51.688;7.130;2022-09-30T05:11:14;3.20;99.90
15617;DHT22;7908;51.688;7.130;2022-09-30T05:13:46;3.20;99.90
15617;DHT22;7908;51.688;7.130;2022-09-30T05:16:15;3.10;99.90
15617;DHT22;7908;51.688;7.130;2022-09-30T05:18:44;3.10;99.90
15617;DHT22;7908;51.688;7.130;2022-09-30T05:21:15;3.00;99.90
15617;DHT22;7908;51.688;7.130;2022-09-30T05:23:44;3.00;99.90
15617;DHT22;7908;51.688;7.130;2022-09-30T05:26:14;2.90;99.90
15617;DHT22;7908;51.688;7.130;2022-09-30T05:28:45;2.90;99.90
15617;DHT22;7908;51.688;7.130;2022-09-30T05:31:13;3.00;99.90
15617;DHT22;7908;51.688;7.130;2022-09-30T05:33:42;3.00;99.90
15617;DHT22;7908;51.688;7.130;2022-09-30T05:36:13;3.00;99.90
15617;DHT22;7908;51.688;7.130;2022-09-30T05:38:42;3.00;99.90
15617;DHT22;7908;51.688;7.130;2022-09-30T05:41:12;2.90;99.90
15617;DHT22;7908;51.688;7.130;2022-09-30T05:43:42;2.90;99.90
15617;DHT22;7908;51.688;7.130;2022-09-30T05:46:16;2.90;99.90
15617;DHT22;7908;51.688;7.130;2022-09-30T05:48:45;2.90;99.90
15617;DHT22;7908;51.688;7.130;2022-09-30T05:51:14;2.90;99.90
15617;DHT22;7908;51.688;7.130;2022-09-30T05:53:43;2.90;99.90
15617;DHT22;7908;51.688;7.130;2022-09-30T05:56:11;3.00;99.90
15617;DHT22;7908;51.688;7.130;2022-09-30T05:58:40;3.00;99.90
15617;DHT22;7908;51.688;7.130;2022-09-30T06:01:11;3.10;99.90
15617;DHT22;7908;51.688;7.130;2022-09-30T06:03:42;3.10;99.90
15617;DHT22;7908;51.688;7.130;2022-09-30T06:06:12;3.10;99.90
15617;DHT22;7908;51.688;7.130;2022-09-30T06:08:41;3.20;99.90
15617;DHT22;7908;51.688;7.130;2022-09-30T06:11:12;3.20;99.90
15617;DHT22;7908;51.688;7.130;2022-09-30T06:13:42;3.30;99.90
15617;DHT22;7908;51.688;7.130;2022-09-30T06:16:11;3.30;99.90
15617;DHT22;7908;51.688;7.130;2022-09-30T06:18:42;3.30;99.90
15617;DHT22;7908;51.688;7.130;2022-09-30T06:21:11;3.40;99.90
15617;DHT22;7908;51.688;7.130;2022-09-30T06:23:43;3.40;99.90
15617;DHT22;7908;51.688;7.130;2022-09-30T06:26:18;3.40;99.90
15617;DHT22;7908;51.688;7.130;2022-09-30T06:28:46;3.40;99.90
15617;DHT22;7908;51.688;7.130;2022-09-30T06:31:16;3.50;99.90
15617;DHT22;7908;51.688;7.130;2022-09-30T06:33:46;3.60;99.90
15617;DHT22;7908;51.688;7.130;2022-09-30T06:36:15;3.60;99.90
15617;DHT22;7908;51.688;7.130;2022-09-30T06:38:46;3.60;99.90
15617;DHT22;7908;51.688;7.130;2022-09-30T06:41:17;3.80;99.90
15617;DHT22;7908;51.688;7.130;2022-09-30T06:43:46;3.80;99.90
15617;DHT22;7908;51.688;7.130;2022-09-30T06:46:15;4.00;99.90
15617;DHT22;7908;51.688;7.130;2022-09-30T06:48:58;4.00;99.90
15617;DHT22;7908;51.688;7.130;2022-09-30T06:51:39;4.10;99.90
15617;DHT22;7908;51.688;7.130;2022-09-30T06:54:08;4.20;99.90
15617;DHT22;7908;51.688;7.130;2022-09-30T06:56:38;4.30;99.90
15617;DHT22;7908;51.688;7.130;2022-09-30T06:59:06;4.30;99.90
15617;DHT22;7908;51.688;7.130;2022-09-30T07:01:35;4.40;99.90
15617;DHT22;7908;51.688;7.130;2022-09-30T07:04:07;4.50;99.90
15617;DHT22;7908;51.688;7.130;2022-09-30T07:06:37;4.60;99.90
15617;DHT22;7908;51.688;7.130;2022-09-30T07:09:06;4.70;99.90
15617;DHT22;7908;51.688;7.130;2022-09-30T07:11:35;4.70;99.90
15617;DHT22;7908;51.688;7.130;2022-09-30T07:14:05;4.80;99.90
15617;DHT22;7908;51.688;7.130;2022-09-30T07:16:34;4.90;99.90
15617;DHT22;7908;51.688;7.130;2022-09-30T07:19:03;5.00;99.90
15617;DHT22;7908;51.688;7.130;2022-09-30T07:21:34;5.20;99.90
15617;DHT22;7908;51.688;7.130;2022-09-30T07:24:03;5.40;99.90
15617;DHT22;7908;51.688;7.130;2022-09-30T07:26:32;5.50;99.90
15617;DHT22;7908;51.688;7.130;2022-09-30T07:29:00;5.60;99.90
15617;DHT22;7908;51.688;7.130;2022-09-30T07:31:29;5.70;99.90
15617;DHT22;7908;51.688;7.130;2022-09-30T07:34:02;5.80;99.90
15617;DHT22;7908;51.688;7.130;2022-09-30T07:36:36;6.00;99.90
15617;DHT22;7908;51.688;7.130;2022-09-30T07:39:07;6.20;99.90
15617;DHT22;7908;51.688;7.130;2022-09-30T07:41:38;6.30;99.90
15617;DHT22;7908;51.688;7.130;2022-09-30T07:44:10;6.40;99.90
15617;DHT22;7908;51.688;7.130;2022-09-30T07:46:42;6.50;99.90
15617;DHT22;7908;51.688;7.130;2022-09-30T07:49:13;6.70;99.90
15617;DHT22;7908;51.688;7.130;2022-09-30T07:51:48;6.80;99.90
15617;DHT22;7908;51.688;7.130;2022-09-30T07:54:21;7.00;99.90
15617;DHT22;7908;51.688;7.130;2022-09-30T07:56:50;7.10;99.90
15617;DHT22;7908;51.688;7.130;2022-09-30T07:59:38;7.20;99.90
15617;DHT22;7908;51.688;7.130;2022-09-30T08:02:12;7.40;99.90
15617;DHT22;7908;51.688;7.130;2022-09-30T08:04:41;7.60;99.90
15617;DHT22;7908;51.688;7.130;2022-09-30T08:07:14;7.80;99.90
15617;DHT22;7908;51.688;7.130;2022-09-30T08:09:43;7.90;99.90
15617;DHT22;7908;51.688;7.130;2022-09-30T08:12:12;8.20;99.90
15617;DHT22;7908;51.688;7.130;2022-09-30T08:14:40;8.40;99.90
15617;DHT22;7908;51.688;7.130;2022-09-30T08:17:10;8.50;99.90
15617;DHT22;7908;51.688;7.130;2022-09-30T08:19:39;8.60;99.90
15617;DHT22;7908;51.688;7.130;2022-09-30T08:22:13;8.70;99.90
15617;DHT22;7908;51.688;7.130;2022-09-30T08:24:42;8.90;99.90
15617;DHT22;7908;51.688;7.130;2022-09-30T08:27:11;9.10;99.90
15617;DHT22;7908;51.688;7.130;2022-09-30T08:29:39;9.20;99.90
15617;DHT22;7908;51.688;7.130;2022-09-30T08:32:22;9.30;99.90
15617;DHT22;7908;51.688;7.130;2022-09-30T08:34:50;9.50;99.90
15617;DHT22;7908;51.688;7.130;2022-09-30T08:37:20;9.50;99.90
15617;DHT22;7908;51.688;7.130;2022-09-30T08:39:50;9.60;99.90
15617;DHT22;7908;51.688;7.130;2022-09-30T08:42:36;9.70;99.90
15617;DHT22;7908;51.688;7.130;2022-09-30T08:45:21;9.80;99.90
15617;DHT22;7908;51.688;7.130;2022-09-30T08:47:58;9.90;99.90
15617;DHT22;7908;51.688;7.130;2022-09-30T08:50:34;10.10;99.90
15617;DHT22;7908;51.688;7.130;2022-09-30T08:53:12;10.10;99.90
15617;DHT22;7908;51.688;7.130;2022-09-30T08:55:43;10.20;99.90
15617;DHT22;7908;51.688;7.130;2022-09-30T08:58:17;10.30;99.90
15617;DHT22;7908;51.688;7.130;2022-09-30T09:00:53;10.40;99.90
15617;DHT22;7908;51.688;7.130;2022-09-30T09:03:27;10.40;99.90
15617;DHT22;7908;51.688;7.130;2022-09-30T09:06:05;10.50;99.90
15617;DHT22;7908;51.688;7.130;2022-09-30T09:08:53;10.60;99.90
15617;DHT22;7908;51.688;7.130;2022-09-30T09:11:43;10.70;99.90
15617;DHT22;7908;51.688;7.130;2022-09-30T09:14:24;10.80;99.90
15617;DHT22;7908;51.688;7.130;2022-09-30T09:17:03;10.80;99.90
15617;DHT22;7908;51.688;7.130;2022-09-30T09:19:44;11.00;99.90
15617;DHT22;7908;51.688;7.130;2022-09-30T09:22:13;11.20;99.90
15617;DHT22;7908;51.688;7.130;2022-09-30T09:24:51;11.30;99.90
15617;DHT22;7908;51.688;7.130;2022-09-30T09:27:25;11.30;99.90
15617;DHT22;7908;51.688;7.130;2022-09-30T09:30:04;11.30;99.90
15617;DHT22;7908;51.688;7.130;2022-09-30T09:32:34;11.40;99.90
15617;DHT22;7908;51.688;7.130;2022-09-30T09:35:12;11.50;99.90
15617;DHT22;7908;51.688;7.130;2022-09-30T09:37:49;11.60;99.90
15617;DHT22;7908;51.688;7.130;2022-09-30T09:40:45;11.70;99.90
15617;DHT22;7908;51.688;7.130;2022-09-30T09:43:33;11.80;99.90
15617;DHT22;7908;51.688;7.130;2022-09-30T09:46:08;12.00;99.90
15617;DHT22;7908;51.688;7.130;2022-09-30T09:48:39;12.10;99.90
15617;DHT22;7908;51.688;7.130;2022-09-30T09:51:14;12.10;99.90
15617;DHT22;7908;51.688;7.130;2022-09-30T09:53:47;12.20;99.90
15617;DHT22;7908;51.688;7.130;2022-09-30T09:56:19;12.40;99.90
15617;DHT22;7908;51.688;7.130;2022-09-30T09:59:06;12.40;99.90
15617;DHT22;7908;51.688;7.130;2022-09-30T10:01:37;12.40;99.90
15617;DHT22;7908;51.688;7.130;2022-09-30T10:04:09;12.50;99.90
15617;DHT22;7908;51.688;7.130;2022-09-30T10:06:47;12.50;99.90
15617;DHT22;7908;51.688;7.130;2022-09-30T10:09:28;12.50;99.90
15617;DHT22;7908;51.688;7.130;2022-09-30T10:12:20;12.70;99.90
15617;DHT22;7908;51.688;7.130;2022-09-30T10:15:00;12.80;99.90
15617;DHT22;7908;51.688;7.130;2022-09-30T10:17:31;12.80;99.90
15617;DHT22;7908;51.688;7.130;2022-09-30T10:20:03;12.80;99.90
15617;DHT22;7908;51.688;7.130;2022-09-30T10:22:35;12.90;99.90
15617;DHT22;7908;51.688;7.130;2022-09-30T10:25:20;13.00;99.90
15617;DHT22;7908;51.688;7.130;2022-09-30T10:27:55;13.00;99.90
15617;DHT22;7908;51.688;7.130;2022-09-30T10:30:48;12.90;99.90
15617;DHT22;7908;51.688;7.130;2022-09-30T10:33:25;12.90;99.90
15617;DHT22;7908;51.688;7.130;2022-09-30T10:36:01;13.00;99.90
15617;DHT22;7908;51.688;7.130;2022-09-30T10:38:31;13.10;99.90
15617;DHT22;7908;51.688;7.130;2022-09-30T10:41:07;13.10;99.90
15617;DHT22;7908;51.688;7.130;2022-09-30T10:43:41;13.20;99.90
15617;DHT22;7908;51.688;7.130;2022-09-30T10:46:10;13.30;99.90
15617;DHT22;7908;51.688;7.130;2022-09-30T10:48:53;13.30;99.90
15617;DHT22;7908;51.688;7.130;2022-09-30T10:51:26;13.40;99.90
15617;DHT22;7908;51.688;7.130;2022-09-30T10:53:56;13.60;99.90
15617;DHT22;7908;51.688;7.130;2022-09-30T10:56:34;13.70;99.90
15617;DHT22;7908;51.688;7.130;2022-09-30T10:59:11;13.70;99.90
15617;DHT22;7908;51.688;7.130;2022-09-30T11:01:46;13.80;99.90
15617;DHT22;7908;51.688;7.130;2022-09-30T11:04:25;13.90;99.90
15617;DHT22;7908;51.688;7.130;2022-09-30T11:07:00;13.90;99.90
15617;DHT22;7908;51.688;7.130;2022-09-30T11:09:36;13.90;99.90
15617;DHT22;7908;51.688;7.130;2022-09-30T11:12:13;13.90;99.90
15617;DHT22;7908;51.688;7.130;2022-09-30T11:14:49;13.90;99.90
15617;DHT22;7908;51.688;7.130;2022-09-30T11:17:31;13.90;99.90
15617;DHT22;7908;51.688;7.130;2022-09-30T11:20:16;13.90;99.90
15617;DHT22;7908;51.688;7.130;2022-09-30T11:22:52;13.80;99.90
15617;DHT22;7908;51.688;7.130;2022-09-30T11:25:27;13.80;99.90
15617;DHT22;7908;51.688;7.130;2022-09-30T11:28:13;13.70;99.90
15617;DHT22;7908;51.688;7.130;2022-09-30T11:30:52;13.60;99.90
15617;DHT22;7908;51.688;7.130;2022-09-30T11:33:38;13.60;99.90
15617;DHT22;7908;51.688;7.130;2022-09-30T11:36:19;13.60;99.90
15617;DHT22;7908;51.688;7.130;2022-09-30T11:39:14;13.60;99.90
15617;DHT22;7908;51.688;7.130;2022-09-30T11:41:49;13.60;99.90
15617;DHT22;7908;51.688;7.130;2022-09-30T11:44:26;13.60;99.90
15617;DHT22;7908;51.688;7.130;2022-09-30T11:50:31;13.80;99.90
15617;DHT22;7908;51.688;7.130;2022-09-30T11:53:11;14.00;99.90
15617;DHT22;7908;51.688;7.130;2022-09-30T11:55:59;14.10;99.90
15617;DHT22;7908;51.688;7.130;2022-09-30T11:58:34;14.10;99.90
15617;DHT22;7908;51.688;7.130;2022-09-30T12:01:19;14.10;99.90
15617;DHT22;7908;51.688;7.130;2022-09-30T12:03:58;14.10;99.90
15617;DHT22;7908;51.688;7.130;2022-09-30T12:06:32;14.10;99.90
15617;DHT22;7908;51.688;7.130;2022-09-30T12:09:07;14.10;99.90
15617;DHT22;7908;51.688;7.130;2022-09-30T12:11:42;14.10;99.90
15617;DHT22;7908;51.688;7.130;2022-09-30T12:14:17;14.10;99.90
15617;DHT22;7908;51.688;7.130;2022-09-30T12:16:48;14.20;99.90
15617;DHT22;7908;51.688;7.130;2022-09-30T12:19:24;14.30;99.90
15617;DHT22;7908;51.688;7.130;2022-09-30T12:21:57;14.40;99.90
15617;DHT22;7908;51.688;7.130;2022-09-30T12:24:31;14.60;99.90
15617;DHT22;7908;51.688;7.130;2022-09-30T12:27:02;14.70;99.90
15617;DHT22;7908;51.688;7.130;2022-09-30T12:29:35;14.80;99.90
15617;DHT22;7908;51.688;7.130;2022-09-30T12:32:46;14.90;99.90
15617;DHT22;7908;51.688;7.130;2022-09-30T12:35:30;15.00;99.90
15617;DHT22;7908;51.688;7.130;2022-09-30T12:38:15;15.10;99.90
15617;DHT22;7908;51.688;7.130;2022-09-30T12:40:58;15.20;99.90
15617;DHT22;7908;51.688;7.130;2022-09-30T12:43:56;15.20;99.90
15617;DHT22;7908;51.688;7.130;2022-09-30T12:46:47;15.40;99.90
15617;DHT22;7908;51.688;7.130;2022-09-30T12:49:23;15.40;99.90
15617;DHT22;7908;51.688;7.130;2022-09-30T12:51:56;15.30;99.90
15617;DHT22;7908;51.688;7.130;2022-09-30T12:54:27;15.30;99.90
15617;DHT22;7908;51.688;7.130;2022-09-30T12:56:59;15.30;99.90
15617;DHT22;7908;51.688;7.130;2022-09-30T12:59:31;15.40;99.90
15617;DHT22;7908;51.688;7.130;2022-09-30T13:02:02;15.40;99.90
15617;DHT22;7908;51.688;7.130;2022-09-30T13:04:34;15.50;99.90
15617;DHT22;7908;51.688;7.130;2022-09-30T13:07:16;15.50;99.90
15617;DHT22;7908;51.688;7.130;2022-09-30T13:12:44;15.50;99.90
15617;DHT22;7908;51.688;7.130;2022-09-30T13:15:39;15.40;99.90
15617;DHT22;7908;51.688;7.130;2022-09-30T13:21:22;15.40;99.90
15617;DHT22;7908;51.688;7.130;2022-09-30T13:23:54;15.50;99.90
15617;DHT22;7908;51.688;7.130;2022-09-30T13:26:34;15.50;99.90
15617;DHT22;7908;51.688;7.130;2022-09-30T13:29:34;15.40;99.90
15617;DHT22;7908;51.688;7.130;2022-09-30T13:32:06;15.40;99.90
15617;DHT22;7908;51.688;7.130;2022-09-30T13:34:53;15.30;99.90
15617;DHT22;7908;51.688;7.130;2022-09-30T13:37:34;15.30;99.90
15617;DHT22;7908;51.688;7.130;2022-09-30T13:40:22;15.30;99.90
15617;DHT22;7908;51.688;7.130;2022-09-30T13:43:17;15.40;99.90
15617;DHT22;7908;51.688;7.130;2022-09-30T13:45:49;15.40;99.90
15617;DHT22;7908;51.688;7.130;2022-09-30T13:48:22;15.40;99.90
15617;DHT22;7908;51.688;7.130;2022-09-30T13:50:54;15.50;99.90
15617;DHT22;7908;51.688;7.130;2022-09-30T13:53:28;15.50;99.90
15617;DHT22;7908;51.688;7.130;2022-09-30T13:56:05;15.50;99.90
15617;DHT22;7908;51.688;7.130;2022-09-30T14:01:39;15.40;99.90
15617;DHT22;7908;51.688;7.130;2022-09-30T14:04:36;15.50;99.90
15617;DHT22;7908;51.688;7.130;2022-09-30T14:07:14;15.50;99.90
15617;DHT22;7908;51.688;7.130;2022-09-30T14:09:58;15.60;99.90
15617;DHT22;7908;51.688;7.130;2022-09-30T14:12:52;15.60;99.90
15617;DHT22;7908;51.688;7.130;2022-09-30T14:15:44;15.60;99.90
15617;DHT22;7908;51.688;7.130;2022-09-30T14:18:51;15.50;99.90
15617;DHT22;7908;51.688;7.130;2022-09-30T14:21:33;15.50;99.90
15617;DHT22;7908;51.688;7.130;2022-09-30T14:24:10;15.50;99.90
15617;DHT22;7908;51.688;7.130;2022-09-30T14:26:55;15.50;99.90
15617;DHT22;7908;51.688;7.130;2022-09-30T14:29:33;15.40;99.90
15617;DHT22;7908;51.688;7.130;2022-09-30T14:32:10;15.30;99.90
15617;DHT22;7908;51.688;7.130;2022-09-30T14:34:40;15.30;99.90
15617;DHT22;7908;51.688;7.130;2022-09-30T14:37:16;15.30;99.90
15617;DHT22;7908;51.688;7.130;2022-09-30T14:39:46;15.40;99.90
15617;DHT22;7908;51.688;7.130;2022-09-30T14:42:23;15.50;99.90
15617;DHT22;7908;51.688;7.130;2022-09-30T14:44:56;15.60;99.90
15617;DHT22;7908;51.688;7.130;2022-09-30T14:47:32;15.60;99.90
15617;DHT22;7908;51.688;7.130;2022-09-30T14:50:09;15.60;99.90
15617;DHT22;7908;51.688;7.130;2022-09-30T14:52:42;15.60;99.90
15617;DHT22;7908;51.688;7.130;2022-09-30T14:55:26;15.50;99.90
15617;DHT22;7908;51.688;7.130;2022-09-30T14:58:18;15.50;99.90
15617;DHT22;7908;51.688;7.130;2022-09-30T15:00:58;15.50;99.90
15617;DHT22;7908;51.688;7.130;2022-09-30T15:03:28;15.50;99.90
15617;DHT22;7908;51.688;7.130;2022-09-30T15:05:58;15.50;99.90
15617;DHT22;7908;51.688;7.130;2022-09-30T15:08:27;15.50;99.90
15617;DHT22;7908;51.688;7.130;2022-09-30T15:10:56;15.50;99.90
15617;DHT22;7908;51.688;7.130;2022-09-30T15:13:27;15.50;99.90
15617;DHT22;7908;51.688;7.130;2022-09-30T15:15:59;15.50;99.90
15617;DHT22;7908;51.688;7.130;2022-09-30T15:18:30;15.50;99.90
15617;DHT22;7908;51.688;7.130;2022-09-30T15:21:05;15.50;99.90
15617;DHT22;7908;51.688;7.130;2022-09-30T15:23:38;15.50;99.90
15617;DHT22;7908;51.688;7.130;2022-09-30T15:26:10;15.50;99.90
15617;DHT22;7908;51.688;7.130;2022-09-30T15:28:40;15.40;99.90
15617;DHT22;7908;51.688;7.130;2022-09-30T15:31:19;15.30;99.90
15617;DHT22;7908;51.688;7.130;2022-09-30T15:34:00;15.20;99.90
15617;DHT22;7908;51.688;7.130;2022-09-30T15:36:29;15.10;99.90
15617;DHT22;7908;51.688;7.130;2022-09-30T15:38:59;15.00;99.90
15617;DHT22;7908;51.688;7.130;2022-09-30T15:41:28;15.00;99.90
15617;DHT22;7908;51.688;7.130;2022-09-30T15:43:57;15.00;99.90
15617;DHT22;7908;51.688;7.130;2022-09-30T15:46:29;15.00;99.90
15617;DHT22;7908;51.688;7.130;2022-09-30T15:49:03;15.00;99.90
15617;DHT22;7908;51.688;7.130;2022-09-30T15:51:38;14.90;99.90
15617;DHT22;7908;51.688;7.130;2022-09-30T15:54:30;14.90;99.90
15617;DHT22;7908;51.688;7.130;2022-09-30T16:00:09;14.90;99.90
15617;DHT22;7908;51.688;7.130;2022-09-30T16:03:07;14.80;99.90
15617;DHT22;7908;51.688;7.130;2022-09-30T16:05:40;14.80;99.90
15617;DHT22;7908;51.688;7.130;2022-09-30T16:08:09;14.80;99.90
15617;DHT22;7908;51.688;7.130;2022-09-30T16:10:48;14.80;99.90
15617;DHT22;7908;51.688;7.130;2022-09-30T16:13:20;14.70;99.90
15617;DHT22;7908;51.688;7.130;2022-09-30T16:15:52;14.70;99.90
15617;DHT22;7908;51.688;7.130;2022-09-30T16:18:27;14.60;99.90
15617;DHT22;7908;51.688;7.130;2022-09-30T16:21:02;14.60;99.90
15617;DHT22;7908;51.688;7.130;2022-09-30T16:23:35;14.60;99.90
15617;DHT22;7908;51.688;7.130;2022-09-30T16:26:27;14.50;99.90
15617;DHT22;7908;51.688;7.130;2022-09-30T16:28:56;14.50;99.90
15617;DHT22;7908;51.688;7.130;2022-09-30T16:31:35;14.40;99.90
15617;DHT22;7908;51.688;7.130;2022-09-30T16:34:07;14.30;99.90
15617;DHT22;7908;51.688;7.130;2022-09-30T16:36:38;14.20;99.90
15617;DHT22;7908;51.688;7.130;2022-09-30T16:39:08;14.20;99.90
15617;DHT22;7908;51.688;7.130;2022-09-30T16:41:40;14.10;99.90
15617;DHT22;7908;51.688;7.130;2022-09-30T16:44:09;14.00;99.90
15617;DHT22;7908;51.688;7.130;2022-09-30T16:46:38;14.00;99.90
15617;DHT22;7908;51.688;7.130;2022-09-30T16:49:12;13.90;99.90
15617;DHT22;7908;51.688;7.130;2022-09-30T16:51:42;13.80;99.90
15617;DHT22;7908;51.688;7.130;2022-09-30T16:54:11;13.80;99.90
15617;DHT22;7908;51.688;7.130;2022-09-30T16:56:40;13.70;99.90
15617;DHT22;7908;51.688;7.130;2022-09-30T16:59:12;13.60;99.90
15617;DHT22;7908;51.688;7.130;2022-09-30T17:01:42;13.60;99.90